Time;durP1;ratioP1;P1;durP2;ratioP2;P2;SDS_P1;SDS_P2;PMS_P1;PMS_P2;Temp;Humidity;BMP_temperature;BMP_pressure;BME280_temperature;BME280_humidity;BME280_pressure;Samples;Min_cycle;Max_cycle;Signal;HPM_P1;HPM_P2
2023/01/21 00:02:18;;;;;;;22.02;15.20;;;;;;;2.27;100.00;92410.59;5072154;28;20090;-70
2023/01/21 00:04:46;;;;;;;22.90;16.45;;;;;;;2.40;100.00;92415.00;5072318;28;20058;-70
2023/01/21 00:07:13;;;;;;;24.55;17.55;;;;;;;2.42;100.00;92419.88;5072022;28;20040;-70
2023/01/21 00:09:40;;;;;;;25.73;17.10;;;;;;;2.46;100.00;92426.19;5072264;28;20044;-69
2023/01/21 00:12:07;;;;;;;19.73;13.65;;;;;;;2.42;100.00;92424.97;5072144;28;20519;-69
2023/01/21 00:14:33;;;;;;;20.88;13.57;;;;;;;2.19;100.00;92419.09;5071915;28;20040;-70
2023/01/21 00:17:00;;;;;;;22.83;14.35;;;;;;;1.95;100.00;92423.47;5072201;28;20164;-70
2023/01/21 00:19:27;;;;;;;26.08;16.33;;;;;;;1.75;100.00;92425.75;5071940;28;20052;-69
2023/01/21 00:21:56;;;;;;;27.15;17.10;;;;;;;1.70;100.00;92428.00;5072028;28;20167;-70
2023/01/21 00:24:23;;;;;;;28.02;18.23;;;;;;;1.58;100.00;92430.22;5072035;28;20052;-70
2023/01/21 00:26:50;;;;;;;30.00;18.73;;;;;;;1.43;100.00;92427.66;5071822;28;20048;-69
2023/01/21 00:29:18;;;;;;;30.90;20.15;;;;;;;1.22;100.00;92424.06;5071886;28;20045;-69
2023/01/21 00:31:44;;;;;;;34.05;21.50;;;;;;;1.11;100.00;92414.34;5071636;28;20044;-70
2023/01/21 00:34:11;;;;;;;33.03;21.58;;;;;;;1.02;100.00;92421.22;5071398;28;20572;-70
2023/01/21 00:36:38;;;;;;;36.55;22.08;;;;;;;1.05;100.00;92415.81;5071705;28;20045;-70
2023/01/21 00:39:06;;;;;;;36.33;22.25;;;;;;;0.86;100.00;92420.38;5071839;28;20056;-70
2023/01/21 00:41:33;;;;;;;35.60;21.58;;;;;;;0.85;100.00;92418.03;5071507;28;20048;-70
2023/01/21 00:43:59;;;;;;;31.33;21.17;;;;;;;0.80;100.00;92414.25;5071805;28;20090;-70
2023/01/21 00:46:27;;;;;;;31.10;21.25;;;;;;;0.75;100.00;92418.25;5071386;28;20052;-70
2023/01/21 00:48:55;;;;;;;35.75;22.25;;;;;;;0.76;100.00;92418.09;5070984;28;20056;-70
2023/01/21 00:51:22;;;;;;;34.10;23.08;;;;;;;0.88;100.00;92432.88;5051576;28;20409;-70
2023/01/21 00:53:49;;;;;;;34.58;22.35;;;;;;;1.08;100.00;92432.38;5051320;28;20128;-70
2023/01/21 00:56:17;;;;;;;39.70;24.27;;;;;;;1.13;100.00;92430.13;5051417;28;20045;-70
2023/01/21 00:58:43;;;;;;;36.63;22.23;;;;;;;1.05;100.00;92436.03;5051366;28;20401;-70
2023/01/21 01:01:13;;;;;;;36.53;22.35;;;;;;;1.23;100.00;92430.69;5051217;28;20122;-70
2023/01/21 01:03:41;;;;;;;38.85;22.63;;;;;;;1.25;100.00;92421.16;5051372;28;20386;-70
2023/01/21 01:06:10;;;;;;;38.85;23.50;;;;;;;1.36;100.00;92432.63;5051244;28;20448;-70
2023/01/21 01:08:37;;;;;;;40.53;22.50;;;;;;;1.45;100.00;92425.75;5051259;28;20045;-70
2023/01/21 01:11:04;;;;;;;40.47;23.52;;;;;;;1.48;100.00;92419.56;5051295;28;20451;-70
2023/01/21 01:13:33;;;;;;;41.80;23.08;;;;;;;1.55;100.00;92423.75;5051100;28;20045;-70
2023/01/21 01:16:01;;;;;;;39.88;22.08;;;;;;;1.56;100.00;92409.31;5050796;28;20505;-70
2023/01/21 01:18:29;;;;;;;39.92;21.83;;;;;;;1.69;100.00;92413.78;5050582;28;20049;-70
2023/01/21 01:20:56;;;;;;;37.10;20.17;;;;;;;1.49;100.00;92419.38;5050953;28;20099;-70
2023/01/21 01:23:23;;;;;;;45.08;21.75;;;;;;;1.57;100.00;92414.22;5050737;28;20077;-70
2023/01/21 01:25:58;;;;;;;40.80;21.88;;;;;;;1.60;100.00;92428.28;5049071;28;20448;-70
2023/01/21 01:28:25;;;;;;;32.17;19.95;;;;;;;0.96;100.00;92422.69;5049888;28;20045;-70
2023/01/21 01:30:53;;;;;;;34.30;20.40;;;;;;;0.82;100.00;92415.84;5070643;28;20040;-69
2023/01/21 01:33:21;;;;;;;47.15;24.80;;;;;;;0.76;100.00;92407.19;5070682;28;20090;-69
2023/01/21 01:35:48;;;;;;;50.13;27.42;;;;;;;0.68;100.00;92394.63;5070479;28;20040;-69
2023/01/21 01:38:15;;;;;;;43.20;23.50;;;;;;;0.67;100.00;92396.34;5070488;28;20044;-70
2023/01/21 01:40:42;;;;;;;33.78;18.98;;;;;;;0.66;100.00;92384.69;5070307;28;20074;-70
2023/01/21 01:43:16;;;;;;;42.08;23.17;;;;;;;0.60;100.00;92373.50;5070050;28;20523;-70
2023/01/21 01:45:42;;;;;;;45.28;23.65;;;;;;;0.51;100.00;92366.94;5070070;28;20040;-70
2023/01/21 01:48:14;;;;;;;44.17;24.55;;;;;;;0.53;100.00;92362.50;5070172;28;20103;-70
2023/01/21 01:50:42;;;;;;;39.70;21.80;;;;;;;0.69;100.00;92373.44;5070371;28;20044;-70
2023/01/21 01:53:11;;;;;;;33.65;19.52;;;;;;;0.77;100.00;92363.25;5070229;28;20105;-70
2023/01/21 01:55:39;;;;;;;35.30;20.80;;;;;;;0.99;100.00;92369.25;5070341;28;20044;-71
2023/01/21 01:58:10;;;;;;;35.08;20.23;;;;;;;0.95;100.00;92374.78;5070233;28;20451;-70
2023/01/21 02:00:37;;;;;;;33.03;19.55;;;;;;;0.98;100.00;92382.84;5069724;28;20100;-71
2023/01/21 02:05:51;;;;;;;32.15;21.98;;;;;;;1.30;100.00;92373.38;5069748;28;20484;-70
2023/01/21 02:08:19;;;;;;;31.40;21.55;;;;;;;1.45;100.00;92375.13;5070011;28;20040;-70
2023/01/21 02:10:46;;;;;;;29.50;19.73;;;;;;;1.39;100.00;92371.53;5069754;28;20086;-70
2023/01/21 02:13:13;;;;;;;29.77;20.95;;;;;;;1.27;100.00;92371.19;5069943;28;20368;-70
2023/01/21 02:15:54;;;;;;;30.45;21.63;;;;;;;1.26;100.00;92366.31;5069146;28;20052;-71
2023/01/21 02:18:36;;;;;;;31.02;19.98;;;;;;;1.21;100.00;92354.19;5069817;28;20045;-69
2023/01/21 02:21:24;;;;;;;30.17;21.13;;;;;;;1.14;100.00;92356.63;5069537;28;20489;-69
2023/01/21 02:24:12;;;;;;;32.70;20.45;;;;;;;1.30;100.00;92347.28;5069250;28;20079;-69
2023/01/21 02:27:17;;;;;;;29.70;19.95;;;;;;;1.37;100.00;92335.50;5069421;28;20489;-70
2023/01/21 02:30:09;;;;;;;31.73;20.58;;;;;;;1.47;100.00;92342.81;5069397;28;20501;-69
2023/01/21 02:33:10;;;;;;;32.28;18.88;;;;;;;1.59;100.00;92340.66;5069568;28;20040;-70
2023/01/21 02:35:44;;;;;;;34.70;19.65;;;;;;;1.63;100.00;92341.88;5069219;28;20045;-70
2023/01/21 02:38:18;;;;;;;38.28;22.33;;;;;;;1.67;100.00;92348.13;5069154;28;20048;-69
2023/01/21 02:40:54;;;;;;;37.55;22.33;;;;;;;1.61;100.00;92351.38;5069569;28;20099;-70
2023/01/21 02:43:32;;;;;;;39.92;22.30;;;;;;;1.26;100.00;92305.59;5069586;28;20048;-70
2023/01/21 02:46:06;;;;;;;35.17;20.63;;;;;;;1.41;100.00;92325.81;5069304;28;20048;-70
2023/01/21 02:48:37;;;;;;;33.53;21.40;;;;;;;1.29;100.00;92317.91;5069363;28;20134;-70
2023/01/21 02:51:06;;;;;;;43.75;25.10;;;;;;;1.29;100.00;92315.38;5069359;28;20044;-70
2023/01/21 02:53:34;;;;;;;38.92;25.35;;;;;;;1.34;100.00;92315.59;5069452;28;20040;-70
2023/01/21 02:56:05;;;;;;;39.40;23.40;;;;;;;1.44;100.00;92308.53;5068884;28;20075;-71
2023/01/21 02:58:36;;;;;;;34.53;19.90;;;;;;;1.56;100.00;92305.56;5068951;28;20044;-70
2023/01/21 03:01:11;;;;;;;36.30;19.83;;;;;;;1.63;100.00;92296.31;5068992;28;20040;-70
2023/01/21 03:04:18;;;;;;;36.85;20.23;;;;;;;1.78;100.00;92296.28;5068754;28;20439;-70
2023/01/21 03:06:56;;;;;;;34.25;18.05;;;;;;;1.77;100.00;92297.25;5065647;28;20041;-70
2023/01/21 03:09:25;;;;;;;33.40;18.55;;;;;;;1.79;100.00;92305.44;5068796;28;20545;-70
2023/01/21 03:12:24;;;;;;;28.40;16.27;;;;;;;1.65;100.00;92288.50;5068848;28;20040;-70
2023/01/21 03:17:49;;;;;;;33.30;19.80;;;;;;;1.24;100.00;92308.28;5068817;28;20056;-70
2023/01/21 03:20:22;;;;;;;27.48;16.00;;;;;;;1.16;100.00;92303.31;5068510;28;20045;-70
2023/01/21 03:22:56;;;;;;;35.95;22.58;;;;;;;0.95;100.00;92298.94;5068466;28;20052;-70
2023/01/21 03:25:26;;;;;;;40.08;22.48;;;;;;;0.97;100.00;92286.91;5068950;28;20041;-70
2023/01/21 03:27:54;;;;;;;39.75;21.90;;;;;;;0.93;100.00;92277.16;5067919;28;20045;-70
2023/01/21 03:30:25;;;;;;;35.72;20.60;;;;;;;0.98;100.00;92269.06;5068559;28;20097;-70
2023/01/21 03:32:54;;;;;;;35.75;19.85;;;;;;;1.11;100.00;92255.78;5069303;28;20475;-70
2023/01/21 03:35:24;;;;;;;38.22;19.67;;;;;;;1.28;100.00;92270.75;5069435;28;20129;-70
2023/01/21 03:37:56;;;;;;;37.25;19.15;;;;;;;1.30;100.00;92263.81;5063991;28;20045;-70
2023/01/21 03:40:27;;;;;;;29.20;18.60;;;;;;;1.03;100.00;92250.81;5066814;28;20040;-70
2023/01/21 03:42:55;;;;;;;28.17;17.55;;;;;;;1.21;100.00;92288.41;5068106;28;20057;-71
2023/01/21 03:45:32;;;;;;;27.63;17.73;;;;;;;1.36;100.00;92287.59;5068579;28;20443;-70
2023/01/21 03:48:05;;;;;;;26.88;16.83;;;;;;;1.34;100.00;92285.25;5045902;28;20118;-70
2023/01/21 03:50:37;;;;;;;27.05;17.13;;;;;;;1.41;100.00;92286.13;5048064;28;20559;-70
2023/01/21 03:53:06;;;;;;;24.52;17.08;;;;;;;1.50;100.00;92286.81;5048451;28;20045;-70
2023/01/21 03:55:35;;;;;;;25.88;17.15;;;;;;;1.50;100.00;92276.69;5048194;28;20922;-70
2023/01/21 03:58:02;;;;;;;24.67;16.48;;;;;;;1.60;100.00;92267.06;5048266;28;20051;-70
2023/01/21 04:00:28;;;;;;;25.20;15.60;;;;;;;1.64;100.00;92267.50;5047707;28;20083;-70
2023/01/21 04:02:55;;;;;;;20.45;14.00;;;;;;;1.54;100.00;92274.59;5048262;28;20122;-70
2023/01/21 04:05:22;;;;;;;19.65;14.48;;;;;;;1.35;100.00;92271.66;5048168;28;20045;-71
2023/01/21 04:07:48;;;;;;;21.05;14.40;;;;;;;1.12;100.00;92251.50;5048128;28;20094;-70
2023/01/21 04:10:17;;;;;;;25.05;17.10;;;;;;;1.23;100.00;92260.38;5047970;28;20045;-70
2023/01/21 04:12:44;;;;;;;30.30;19.33;;;;;;;1.06;100.00;92260.56;5047980;28;20037;-70
2023/01/21 04:15:11;;;;;;;29.95;19.27;;;;;;;1.03;100.00;92266.75;5048081;28;20463;-70
2023/01/21 04:17:38;;;;;;;31.48;19.63;;;;;;;1.11;100.00;92255.00;5047898;28;20539;-70
2023/01/21 04:20:07;;;;;;;31.13;21.27;;;;;;;1.37;100.00;92253.75;5048153;28;20041;-70
2023/01/21 04:22:33;;;;;;;29.10;18.98;;;;;;;1.26;100.00;92255.00;5048142;28;20045;-70
2023/01/21 04:25:00;;;;;;;28.83;18.55;;;;;;;1.42;100.00;92269.19;5047914;28;20045;-70
2023/01/21 04:27:28;;;;;;;30.33;18.45;;;;;;;1.51;100.00;92269.84;5048032;28;20106;-70
2023/01/21 04:29:55;;;;;;;26.35;17.17;;;;;;;1.60;100.00;92269.59;5061718;28;20048;-71
2023/01/21 04:32:21;;;;;;;27.25;18.63;;;;;;;1.70;100.00;92283.69;5068139;28;20124;-70
2023/01/21 04:34:48;;;;;;;27.05;18.40;;;;;;;1.82;100.00;92281.50;5067731;28;20046;-70
2023/01/21 04:37:15;;;;;;;26.00;17.13;;;;;;;1.86;100.00;92278.41;5068073;28;20096;-70
2023/01/21 04:39:41;;;;;;;30.17;18.27;;;;;;;1.71;100.00;92277.69;5070937;28;20082;-71
2023/01/21 04:42:08;;;;;;;30.83;20.52;;;;;;;1.63;100.00;92272.72;5071343;28;20055;-71
2023/01/21 04:44:36;;;;;;;29.30;18.60;;;;;;;1.69;100.00;92289.72;5071380;28;20082;-71
2023/01/21 04:47:03;;;;;;;24.65;15.40;;;;;;;1.60;100.00;92274.66;5071685;28;20052;-71
2023/01/21 04:49:30;;;;;;;26.40;16.00;;;;;;;1.62;100.00;92309.13;5071947;28;20090;-70
2023/01/21 04:51:57;;;;;;;27.90;16.67;;;;;;;1.62;100.00;92302.31;5071721;28;20071;-71
2023/01/21 04:54:23;;;;;;;26.60;15.95;;;;;;;1.57;100.00;92305.38;5071531;28;20554;-70
2023/01/21 04:56:50;;;;;;;33.05;18.52;;;;;;;1.63;100.00;92305.63;5071334;28;20106;-71
2023/01/21 04:59:17;;;;;;;35.00;19.58;;;;;;;1.60;100.00;92294.91;5071549;28;20060;-71
2023/01/21 05:01:45;;;;;;;36.17;21.15;;;;;;;1.69;100.00;92290.53;5071490;28;20044;-71
2023/01/21 05:04:11;;;;;;;32.53;19.58;;;;;;;1.72;100.00;92307.13;5071094;28;20389;-70
2023/01/21 05:06:38;;;;;;;36.03;19.77;;;;;;;1.64;100.00;92325.72;5071717;28;20102;-70
2023/01/21 05:09:05;;;;;;;32.25;18.98;;;;;;;1.64;100.00;92315.59;5071169;28;20086;-70
2023/01/21 05:11:32;;;;;;;33.00;18.67;;;;;;;1.68;100.00;92316.81;5071133;28;20094;-70
2023/01/21 05:13:58;;;;;;;33.15;20.80;;;;;;;1.72;100.00;92318.00;5062873;28;20045;-70
2023/01/21 05:16:25;;;;;;;34.80;18.13;;;;;;;1.79;100.00;92322.34;5070750;28;20098;-70
2023/01/21 05:18:53;;;;;;;30.60;17.17;;;;;;;1.79;100.00;92323.16;5070116;28;20044;-70
2023/01/21 05:21:20;;;;;;;32.03;17.60;;;;;;;1.77;100.00;92334.41;5070581;28;20048;-70
2023/01/21 05:23:46;;;;;;;31.65;17.88;;;;;;;1.79;100.00;92338.34;5067273;28;20045;-70
2023/01/21 05:26:13;;;;;;;30.63;17.20;;;;;;;1.85;100.00;92335.09;5052036;28;20102;-70
2023/01/21 05:28:40;;;;;;;29.70;17.42;;;;;;;1.89;100.00;92343.13;5058836;28;20048;-70
2023/01/21 05:31:07;;;;;;;31.52;17.15;;;;;;;1.95;100.00;92336.56;5064680;28;20052;-70
2023/01/21 05:33:35;;;;;;;36.58;20.27;;;;;;;1.96;100.00;92341.47;5070335;28;20106;-70
2023/01/21 05:36:04;;;;;;;37.15;19.90;;;;;;;1.85;100.00;92329.28;5061914;28;20053;-71
2023/01/21 05:38:31;;;;;;;31.63;19.23;;;;;;;1.85;100.00;92327.50;5070906;28;20045;-70
2023/01/21 05:40:59;;;;;;;31.50;18.42;;;;;;;1.85;100.00;92326.75;5070848;28;20098;-70
2023/01/21 05:43:26;;;;;;;36.58;21.05;;;;;;;1.83;100.00;92328.66;5064151;28;20439;-70
2023/01/21 05:45:53;;;;;;;32.42;20.40;;;;;;;1.84;100.00;92336.06;5071020;28;20094;-71
2023/01/21 05:48:20;;;;;;;30.38;18.98;;;;;;;1.77;100.00;92322.56;5070201;28;20048;-70
2023/01/21 05:50:47;;;;;;;30.45;19.08;;;;;;;1.77;100.00;92325.09;5069947;28;20056;-70
2023/01/21 05:53:16;;;;;;;29.45;18.83;;;;;;;1.80;100.00;92327.25;5070578;28;20468;-71
2023/01/21 05:55:43;;;;;;;24.67;16.20;;;;;;;1.70;100.00;92321.69;5070654;28;20101;-70
2023/01/21 05:58:09;;;;;;;25.27;16.30;;;;;;;1.76;100.00;92333.63;5070235;28;20052;-70
2023/01/21 06:00:36;;;;;;;25.00;15.40;;;;;;;1.75;100.00;92324.47;5057184;28;20501;-70
2023/01/21 06:03:03;;;;;;;25.83;16.88;;;;;;;1.70;100.00;92329.28;5042329;28;20098;-70
2023/01/21 06:05:30;;;;;;;30.92;18.27;;;;;;;1.67;100.00;92343.06;5068084;28;20101;-70
2023/01/21 06:07:57;;;;;;;31.80;18.73;;;;;;;1.71;100.00;92325.81;5069421;28;20508;-70
2023/01/21 06:10:25;;;;;;;34.15;19.58;;;;;;;1.70;100.00;92319.16;5070243;28;20102;-70
2023/01/21 06:12:52;;;;;;;37.15;20.30;;;;;;;1.64;100.00;92323.19;5070152;28;20106;-70
2023/01/21 06:15:19;;;;;;;40.97;22.92;;;;;;;1.56;100.00;92336.72;5069853;28;20090;-70
2023/01/21 06:17:45;;;;;;;34.05;19.20;;;;;;;1.51;100.00;92331.41;5063684;28;20048;-70
2023/01/21 06:20:12;;;;;;;26.33;16.50;;;;;;;1.45;100.00;92350.59;5058360;28;20099;-70
2023/01/21 06:22:39;;;;;;;36.25;20.65;;;;;;;1.40;100.00;92355.41;5070343;28;20097;-70
2023/01/21 06:25:06;;;;;;;36.25;21.17;;;;;;;1.42;100.00;92365.34;5069733;28;20040;-70
2023/01/21 06:27:36;;;;;;;34.25;19.45;;;;;;;1.46;100.00;92359.78;5069720;28;20117;-70
2023/01/21 06:30:03;;;;;;;35.45;18.45;;;;;;;1.48;100.00;92363.88;5069560;28;20048;-70
2023/01/21 06:32:29;;;;;;;35.45;19.92;;;;;;;1.55;100.00;92368.06;5069663;28;20052;-70
2023/01/21 06:34:56;;;;;;;44.13;20.80;;;;;;;1.56;100.00;92381.47;5056930;28;20053;-70
2023/01/21 06:37:23;;;;;;;36.20;19.17;;;;;;;1.56;100.00;92376.44;5069593;28;20056;-70
2023/01/21 06:39:49;;;;;;;43.97;22.42;;;;;;;1.62;100.00;92390.13;5069245;28;20106;-70
2023/01/21 06:42:16;;;;;;;38.50;20.17;;;;;;;1.67;100.00;92385.34;5069522;28;20554;-70
2023/01/21 06:44:45;;;;;;;30.00;16.60;;;;;;;1.44;100.00;92374.34;5069034;28;20060;-70
2023/01/21 06:47:12;;;;;;;34.83;21.30;;;;;;;1.32;100.00;92375.72;5069785;28;20080;-70
2023/01/21 06:49:39;;;;;;;32.00;20.80;;;;;;;1.30;100.00;92383.47;5069117;28;20048;-70
2023/01/21 06:52:06;;;;;;;29.85;18.90;;;;;;;1.28;100.00;92385.41;5069571;28;20200;-70
2023/01/21 06:54:33;;;;;;;26.48;17.25;;;;;;;1.29;100.00;92384.44;5068945;28;20129;-70
2023/01/21 06:56:59;;;;;;;26.38;17.52;;;;;;;1.39;100.00;92375.81;5069201;28;20451;-70
2023/01/21 06:59:26;;;;;;;24.08;15.38;;;;;;;1.35;100.00;92360.22;5069413;28;20052;-70
2023/01/21 07:01:57;;;;;;;24.60;15.07;;;;;;;1.41;100.00;92377.22;5069105;28;20119;-70
2023/01/21 07:04:24;;;;;;;34.95;18.85;;;;;;;1.48;100.00;92376.53;5055635;28;20151;-70
2023/01/21 07:06:51;;;;;;;27.67;14.88;;;;;;;1.49;100.00;92378.88;5068475;28;20044;-70
2023/01/21 07:09:18;;;;;;;38.42;21.88;;;;;;;1.42;100.00;92385.59;5068772;28;20044;-70
2023/01/21 07:11:44;;;;;;;23.08;14.85;;;;;;;1.45;100.00;92378.44;5069454;28;20121;-70
2023/01/21 07:14:11;;;;;;;27.05;17.70;;;;;;;1.64;100.00;92389.00;5068365;28;20102;-70
2023/01/21 07:16:38;;;;;;;34.97;22.83;;;;;;;1.67;100.00;92373.44;5069126;28;20048;-70
2023/01/21 07:19:07;;;;;;;30.63;24.75;;;;;;;1.80;100.00;92374.59;5069191;28;20094;-70
2023/01/21 07:21:34;;;;;;;33.20;29.42;;;;;;;1.96;100.00;92371.06;5069419;28;20051;-71
2023/01/21 07:24:00;;;;;;;43.78;37.97;;;;;;;2.09;100.00;92360.31;5055333;28;20048;-70
2023/01/21 07:26:27;;;;;;;50.88;37.70;;;;;;;2.22;100.00;92368.03;5068879;28;20048;-70
2023/01/21 07:28:54;;;;;;;35.15;26.88;;;;;;;2.32;100.00;92374.56;5067926;28;20103;-69
2023/01/21 07:31:20;;;;;;;33.80;22.33;;;;;;;2.44;100.00;92370.59;5068921;28;20056;-70
2023/01/21 07:33:47;;;;;;;28.60;17.77;;;;;;;2.58;100.00;92374.03;5063106;28;20504;-70
2023/01/21 07:36:15;;;;;;;24.80;18.80;;;;;;;2.65;100.00;92362.19;5060854;28;20056;-70
2023/01/21 07:38:42;;;;;;;26.63;18.70;;;;;;;2.74;100.00;92372.22;5068745;28;20040;-70
2023/01/21 07:41:09;;;;;;;32.38;21.88;;;;;;;2.86;100.00;92369.97;5068353;28;20099;-69
2023/01/21 07:43:35;;;;;;;32.67;22.13;;;;;;;2.96;100.00;92379.81;5068938;28;20116;-69
2023/01/21 07:46:02;;;;;;;28.77;20.70;;;;;;;2.96;100.00;92372.97;5069134;28;20105;-70
2023/01/21 07:48:29;;;;;;;54.60;31.33;;;;;;;3.05;100.00;92364.25;5068223;28;20118;-70
2023/01/21 07:50:57;;;;;;;39.92;25.02;;;;;;;3.07;100.00;92364.84;5068909;28;20048;-70
2023/01/21 07:53:25;;;;;;;35.25;23.08;;;;;;;3.05;100.00;92366.00;5068889;28;20071;-70
2023/01/21 07:55:52;;;;;;;32.80;22.15;;;;;;;3.10;100.00;92347.72;5068608;28;20063;-70
2023/01/21 07:58:18;;;;;;;32.20;22.05;;;;;;;3.00;100.00;92358.97;5068515;28;20567;-70
2023/01/21 08:00:45;;;;;;;29.38;19.30;;;;;;;2.98;100.00;92365.19;5068172;28;20044;-70
2023/01/21 08:03:12;;;;;;;25.73;16.25;;;;;;;2.94;100.00;92375.72;5063139;28;20098;-70
2023/01/21 08:05:38;;;;;;;43.13;29.95;;;;;;;3.05;100.00;92378.69;5054871;28;20106;-70
2023/01/21 08:08:05;;;;;;;48.33;32.78;;;;;;;3.19;100.00;92377.03;5057224;28;20053;-70
2023/01/21 08:10:33;;;;;;;54.05;35.38;;;;;;;3.26;100.00;92372.00;5068053;28;20102;-71
2023/01/21 08:13:00;;;;;;;44.20;30.50;;;;;;;3.33;100.00;92383.78;5069523;28;20394;-70
2023/01/21 08:15:27;;;;;;;42.53;28.55;;;;;;;3.57;100.00;92381.00;5071881;28;20556;-70
2023/01/21 08:17:55;;;;;;;31.85;20.63;;;;;;;3.71;100.00;92382.63;5072167;28;20045;-70
2023/01/21 08:20:22;;;;;;;18.80;13.60;;;;;;;3.83;100.00;92390.50;5071931;28;20049;-70
2023/01/21 08:22:49;;;;;;;23.00;14.70;;;;;;;3.98;100.00;92399.75;5072250;28;20175;-70
2023/01/21 08:25:16;;;;;;;17.13;12.13;;;;;;;4.13;100.00;92405.47;5072240;28;20041;-70
2023/01/21 08:27:44;;;;;;;24.00;14.25;;;;;;;4.24;100.00;92403.34;5072533;28;20094;-70
2023/01/21 08:30:11;;;;;;;15.60;11.30;;;;;;;4.21;100.00;92413.94;5071782;28;20102;-70
2023/01/21 08:32:38;;;;;;;16.95;12.60;;;;;;;4.23;100.00;92407.69;5072059;28;20102;-70
2023/01/21 08:35:06;;;;;;;19.10;14.10;;;;;;;3.93;100.00;92413.00;5056036;28;20049;-70
2023/01/21 08:37:32;;;;;;;21.33;15.23;;;;;;;3.85;100.00;92421.56;5061909;28;20053;-70
2023/01/21 08:39:59;;;;;;;21.92;14.48;;;;;;;3.90;100.00;92427.84;5071738;28;20052;-70
2023/01/21 08:42:26;;;;;;;20.25;14.30;;;;;;;3.95;100.00;92426.34;5072082;28;20045;-70
2023/01/21 08:44:54;;;;;;;20.70;14.13;;;;;;;4.06;100.00;92435.16;5062800;28;20045;-70
2023/01/21 08:47:21;;;;;;;21.30;14.00;;;;;;;4.08;100.00;92448.47;5066358;28;20625;-70
2023/01/21 08:49:47;;;;;;;21.20;13.88;;;;;;;4.22;100.00;92443.44;5071788;28;20044;-70
2023/01/21 08:52:15;;;;;;;22.52;14.20;;;;;;;4.44;100.00;92451.72;5071541;28;20562;-70
2023/01/21 08:54:42;;;;;;;35.17;19.80;;;;;;;4.44;100.00;92449.19;5071668;28;20489;-70
2023/01/21 08:57:10;;;;;;;34.67;18.80;;;;;;;4.41;100.00;92442.72;5071197;28;21518;-70
2023/01/21 08:59:36;;;;;;;28.08;17.27;;;;;;;4.34;100.00;92444.47;5071695;28;20106;-70
2023/01/21 09:02:05;;;;;;;23.33;15.55;;;;;;;4.28;100.00;92437.59;5071031;28;20443;-70
2023/01/21 09:04:31;;;;;;;25.85;15.73;;;;;;;4.40;100.00;92428.44;5071436;28;20052;-70
2023/01/21 09:06:58;;;;;;;27.00;15.52;;;;;;;4.61;100.00;92434.38;5070995;28;20080;-70
2023/01/21 09:09:25;;;;;;;24.55;14.70;;;;;;;4.77;100.00;92440.09;5071291;28;20052;-70
2023/01/21 09:11:52;;;;;;;34.55;16.80;;;;;;;4.93;100.00;92441.47;5071150;28;20041;-70
2023/01/21 09:14:19;;;;;;;30.00;17.58;;;;;;;5.04;100.00;92452.84;5071245;28;20135;-70
2023/01/21 09:16:48;;;;;;;29.88;16.08;;;;;;;5.07;100.00;92432.09;5071095;28;20043;-70
2023/01/21 09:19:16;;;;;;;30.23;16.10;;;;;;;5.29;100.00;92429.38;5071210;28;20493;-70
2023/01/21 09:21:42;;;;;;;33.47;17.27;;;;;;;5.47;100.00;92421.91;5070975;28;20044;-70
2023/01/21 09:24:09;;;;;;;34.65;19.85;;;;;;;5.59;100.00;92424.66;5070079;28;20052;-71
2023/01/21 09:26:36;;;;;;;38.40;18.70;;;;;;;5.68;100.00;92411.69;5070507;28;20048;-70
2023/01/21 09:29:03;;;;;;;37.65;22.15;;;;;;;5.86;100.00;92411.84;5070942;28;20056;-70
2023/01/21 09:31:31;;;;;;;31.40;18.23;;;;;;;5.97;100.00;92418.09;5070961;28;20045;-70
2023/01/21 09:33:59;;;;;;;36.97;20.13;;;;;;;6.15;100.00;92421.78;5064413;28;20049;-70
2023/01/21 09:36:30;;;;;;;27.83;17.05;;;;;;;6.26;100.00;92422.94;5065108;28;20048;-70
2023/01/21 09:38:57;;;;;;;26.85;16.40;;;;;;;6.30;100.00;92426.66;5071209;28;20448;-70
2023/01/21 09:41:28;;;;;;;21.65;14.93;;;;;;;6.39;100.00;92422.09;5066019;28;20049;-70
2023/01/21 09:44:03;;;;;;;16.30;12.05;;;;;;;6.45;100.00;92436.59;5060744;28;20574;-70
2023/01/21 09:46:35;;;;;;;19.40;12.02;;;;;;;6.47;100.00;92444.06;5070468;28;20040;-70
2023/01/21 09:49:05;;;;;;;19.35;13.02;;;;;;;6.61;100.00;92434.56;5070797;28;20060;-69
2023/01/21 09:51:44;;;;;;;16.83;12.02;;;;;;;6.57;100.00;92439.28;5070614;28;20044;-69
2023/01/21 09:54:18;;;;;;;18.00;12.10;;;;;;;6.67;100.00;92431.97;5070787;28;20101;-70
2023/01/21 09:56:56;;;;;;;39.75;22.67;;;;;;;6.66;100.00;92432.16;5070919;28;20040;-69
2023/01/21 09:59:35;;;;;;;25.48;16.50;;;;;;;6.80;100.00;92431.13;5070623;28;21357;-69
2023/01/21 10:02:07;;;;;;;21.85;14.98;;;;;;;6.84;100.00;92433.25;5070164;28;20497;-69
2023/01/21 10:04:46;;;;;;;24.75;16.00;;;;;;;7.00;100.00;92422.56;5070228;28;20489;-70
2023/01/21 10:07:19;;;;;;;20.88;13.50;;;;;;;6.61;100.00;92439.66;5070336;28;20436;-69
2023/01/21 10:09:58;;;;;;;21.92;13.02;;;;;;;6.40;100.00;92429.53;5070344;28;20109;-69
2023/01/21 10:12:45;;;;;;;5.88;4.15;;;;;;;6.22;100.00;92437.06;5069908;28;20543;-69
2023/01/21 10:15:47;;;;;;;12.02;7.10;;;;;;;6.34;100.00;92445.66;5070592;28;20052;-69
2023/01/21 10:18:18;;;;;;;10.23;5.63;;;;;;;6.04;100.00;92433.41;5007956;28;20096;-70
2023/01/21 10:20:50;;;;;;;8.35;4.10;;;;;;;6.24;100.00;92437.63;5059478;28;20158;-69
2023/01/21 10:23:24;;;;;;;10.13;6.07;;;;;;;6.27;100.00;92432.16;5069146;28;20497;-69
2023/01/21 10:25:51;;;;;;;11.00;7.13;;;;;;;6.51;100.00;92428.13;5067511;28;20044;-69
2023/01/21 10:28:22;;;;;;;12.85;7.57;;;;;;;6.68;100.00;92418.22;5069667;28;20048;-70
2023/01/21 10:30:51;;;;;;;11.38;6.18;;;;;;;6.82;100.00;92431.69;5069585;28;20127;-69
2023/01/21 10:33:21;;;;;;;15.45;7.57;;;;;;;6.82;100.00;92424.03;5069141;28;20131;-69
2023/01/21 10:36:15;;;;;;;13.55;7.40;;;;;;;6.71;100.00;92419.56;5043583;28;20044;-69
2023/01/21 10:38:52;;;;;;;14.15;7.75;;;;;;;6.89;100.00;92403.56;5069643;28;20041;-69
2023/01/21 10:41:32;;;;;;;22.20;11.32;;;;;;;7.13;100.00;92408.13;5069534;28;20110;-69
2023/01/21 10:44:07;;;;;;;14.85;8.27;;;;;;;7.14;100.00;92412.25;5069475;28;20493;-69
2023/01/21 10:46:44;;;;;;;18.95;8.82;;;;;;;7.04;100.00;92408.38;5052818;28;20045;-68
2023/01/21 10:49:24;;;;;;;18.63;9.95;;;;;;;6.99;100.00;92379.34;5067488;28;20497;-68
2023/01/21 10:51:55;;;;;;;18.45;8.60;;;;;;;7.26;100.00;92413.13;5065695;28;20087;-68
2023/01/21 10:54:34;;;;;;;19.08;7.95;;;;;;;6.84;100.00;92402.63;5069362;28;20048;-69
2023/01/21 10:57:12;;;;;;;13.20;6.65;;;;;;;6.44;100.00;92391.66;5069543;28;20133;-69
2023/01/21 10:59:41;;;;;;;15.93;7.47;;;;;;;6.48;100.00;92389.50;5069458;28;20049;-68
2023/01/21 11:02:20;;;;;;;18.02;8.20;;;;;;;6.45;100.00;92402.63;5069474;28;20052;-68
2023/01/21 11:04:47;;;;;;;17.90;7.30;;;;;;;6.68;100.00;92400.34;5055935;28;20044;-68
2023/01/21 11:07:20;;;;;;;17.20;6.68;;;;;;;6.72;100.00;92407.59;5067455;28;20097;-70
2023/01/21 11:09:49;;;;;;;16.10;5.95;;;;;;;6.53;100.00;92390.41;5069277;28;21231;-69
2023/01/21 11:12:19;;;;;;;14.05;5.05;;;;;;;6.66;100.00;92411.75;5068650;28;20087;-69
2023/01/21 11:14:49;;;;;;;12.77;6.25;;;;;;;6.74;100.00;92398.75;5069427;28;20082;-69
2023/01/21 11:17:31;;;;;;;7.88;5.55;;;;;;;6.83;100.00;92404.41;5069456;28;20442;-69
2023/01/21 11:20:00;;;;;;;11.57;5.65;;;;;;;7.03;100.00;92406.03;5052076;28;20049;-69
2023/01/21 11:22:29;;;;;;;11.95;5.60;;;;;;;6.95;100.00;92404.53;5069023;28;20066;-69
2023/01/21 11:24:58;;;;;;;8.38;5.15;;;;;;;7.07;100.00;92384.97;5068989;28;20420;-69
2023/01/21 11:27:33;;;;;;;12.07;6.32;;;;;;;7.31;100.00;92397.19;5068984;28;20048;-70
2023/01/21 11:29:59;;;;;;;10.80;6.55;;;;;;;7.36;100.00;92399.88;5068810;28;20423;-69
2023/01/21 11:32:28;;;;;;;9.02;5.47;;;;;;;7.40;100.00;92383.13;5069115;28;20448;-69
2023/01/21 11:35:03;;;;;;;10.95;5.75;;;;;;;7.03;100.00;92360.06;5056029;28;20572;-69
2023/01/21 11:37:31;;;;;;;8.48;5.22;;;;;;;7.28;100.00;92385.63;5066887;28;20040;-69